Time;durP1;ratioP1;P1;durP2;ratioP2;P2;SDS_P1;SDS_P2;PMS_P1;PMS_P2;Temp;Humidity;BMP_temperature;BMP_pressure;BME280_temperature;BME280_humidity;BME280_pressure;Samples;Min_cycle;Max_cycle;Signal;HPM_P1;HPM_P2
2022/02/15 00:02:18;;;;;;;4.93;1.47;;;;;;;-145.69;100.00;71854.13;5113912;28;20204;-79
2022/02/15 00:04:45;;;;;;;3.73;1.07;;;;;;;-145.69;100.00;71856.09;5113810;28;20201;-79
2022/02/15 00:07:11;;;;;;;2.60;1.00;;;;;;;-145.69;100.00;71858.09;5114068;28;20279;-79
2022/02/15 00:09:39;;;;;;;4.03;1.40;;;;;;;-145.69;100.00;71854.13;5113371;28;20659;-79
2022/02/15 00:12:06;;;;;;;6.10;1.40;;;;;;;-145.69;100.00;71856.09;5093526;28;20202;-80
2022/02/15 00:14:33;;;;;;;2.47;1.10;;;;;;;-145.69;100.00;71852.13;5093556;28;20661;-79
2022/02/15 00:16:59;;;;;;;4.23;1.10;;;;;;;-145.69;100.00;71860.09;5093154;28;20234;-79
2022/02/15 00:19:26;;;;;;;2.03;1.00;;;;;;;-145.69;100.00;71864.06;5099519;28;20445;-79
2022/02/15 00:21:52;;;;;;;4.63;1.30;;;;;;;-145.69;100.00;71860.09;5093265;28;20665;-79
2022/02/15 00:24:19;;;;;;;1.83;1.03;;;;;;;-145.69;100.00;71864.06;5093217;28;20657;-79
2022/02/15 00:26:48;;;;;;;5.87;1.40;;;;;;;-145.69;100.00;71876.00;5093079;28;20699;-79
2022/02/15 00:29:15;;;;;;;6.23;1.23;;;;;;;-145.69;100.00;71880.00;5093416;28;20202;-79
2022/02/15 00:31:42;;;;;;;2.73;1.00;;;;;;;-145.69;100.00;71891.94;5093257;28;20202;-79
2022/02/15 00:34:08;;;;;;;3.57;1.00;;;;;;;-145.69;100.00;71885.97;5093333;28;20213;-78
2022/02/15 00:36:34;;;;;;;3.57;1.10;;;;;;;-145.69;100.00;71881.97;5093269;28;20210;-79
2022/02/15 00:39:01;;;;;;;4.50;0.93;;;;;;;-145.69;100.00;71883.97;5095679;28;20197;-79
2022/02/15 00:41:27;;;;;;;4.63;1.00;;;;;;;-145.69;100.00;71893.91;5093060;28;20206;-79
2022/02/15 00:43:55;;;;;;;2.40;1.00;;;;;;;-145.69;100.00;71897.91;5093099;28;20403;-78
2022/02/15 00:46:22;;;;;;;4.63;1.30;;;;;;;-145.69;100.00;71895.91;5092936;28;20204;-79
2022/02/15 00:48:48;;;;;;;3.53;1.10;;;;;;;-145.69;100.00;71899.88;5093249;28;20205;-79
2022/02/15 00:51:14;;;;;;;5.80;1.23;;;;;;;-145.69;100.00;71905.88;5104565;28;20198;-79
2022/02/15 00:53:41;;;;;;;1.20;1.00;;;;;;;-145.69;100.00;71919.78;5113549;28;20204;-79
2022/02/15 00:56:07;;;;;;;3.70;1.20;;;;;;;-145.69;100.00;71923.78;5116718;28;20629;-79
2022/02/15 00:58:34;;;;;;;8.33;1.60;;;;;;;-145.69;100.00;71911.84;5117615;28;20201;-79
2022/02/15 01:01:02;;;;;;;5.43;1.60;;;;;;;-145.69;100.00;71919.78;5117463;28;20289;-79
2022/02/15 01:03:29;;;;;;;2.57;1.10;;;;;;;-145.69;100.00;71923.78;5117456;28;20201;-79
2022/02/15 01:05:57;;;;;;;4.67;1.10;;;;;;;-145.69;100.00;71915.81;5117225;28;20691;-79
2022/02/15 01:08:23;;;;;;;3.73;1.30;;;;;;;-145.69;100.00;71911.84;5117267;28;20233;-79
2022/02/15 01:10:50;;;;;;;4.13;1.20;;;;;;;-145.69;100.00;71911.84;5117244;28;20196;-79
2022/02/15 01:13:17;;;;;;;5.13;1.43;;;;;;;-145.69;100.00;71911.84;5117004;28;20204;-79
2022/02/15 01:15:43;;;;;;;2.10;1.30;;;;;;;-145.69;100.00;71939.69;5117291;28;20576;-79
2022/02/15 01:18:11;;;;;;;3.63;1.40;;;;;;;-145.69;100.00;71947.66;5116940;28;20664;-79
2022/02/15 01:20:38;;;;;;;3.57;0.80;;;;;;;-145.69;100.00;71953.63;5117001;28;20202;-79
2022/02/15 01:23:04;;;;;;;4.30;1.10;;;;;;;-145.69;100.00;71953.63;5117298;28;20204;-80
2022/02/15 01:25:31;;;;;;;6.07;0.97;;;;;;;-145.69;100.00;71959.59;5117048;28;20224;-79
2022/02/15 01:27:57;;;;;;;3.00;1.30;;;;;;;-145.69;100.00;71963.56;5116720;28;20688;-79
2022/02/15 01:30:24;;;;;;;1.93;0.80;;;;;;;-145.69;100.00;71977.50;5117168;28;20194;-79
2022/02/15 01:32:51;;;;;;;4.57;1.40;;;;;;;-145.69;100.00;71973.53;5117120;28;20198;-79
2022/02/15 01:35:18;;;;;;;5.67;1.10;;;;;;;-145.69;100.00;71989.44;5116841;28;20247;-79
2022/02/15 01:37:45;;;;;;;4.77;1.20;;;;;;;-145.69;100.00;71989.44;5116918;28;20197;-79
2022/02/15 01:40:13;;;;;;;4.67;1.30;;;;;;;-145.69;100.00;71977.50;5116716;28;20209;-79
2022/02/15 01:42:40;;;;;;;3.27;1.07;;;;;;;-145.69;100.00;71981.50;5116549;28;20647;-80
2022/02/15 01:45:10;;;;;;;3.03;0.90;;;;;;;-145.69;100.00;71991.44;5116744;28;20197;-79
2022/02/15 01:47:36;;;;;;;2.00;1.00;;;;;;;-145.69;100.00;72003.38;5117075;28;20232;-80
2022/02/15 01:50:04;;;;;;;1.20;0.80;;;;;;;-145.69;100.00;72015.31;5113095;28;20198;-79
2022/02/15 01:52:32;;;;;;;2.60;0.90;;;;;;;-145.69;100.00;72013.31;5117130;28;20223;-79
2022/02/15 01:55:00;;;;;;;4.33;1.00;;;;;;;-145.69;100.00;72011.34;5116296;28;20282;-79
2022/02/15 01:57:27;;;;;;;2.13;0.93;;;;;;;-145.69;100.00;72011.34;5116537;28;20667;-79
2022/02/15 01:59:55;;;;;;;1.87;1.00;;;;;;;-145.69;100.00;72005.38;5116822;28;20202;-79
2022/02/15 02:02:22;;;;;;;3.73;1.07;;;;;;;-145.69;100.00;72003.38;5116461;28;20652;-79
2022/02/15 02:07:34;;;;;;;2.43;1.30;;;;;;;-145.69;100.00;72003.38;5116269;28;20224;-78
2022/02/15 02:10:00;;;;;;;4.17;1.17;;;;;;;-145.69;100.00;72011.34;5116393;28;20201;-78
2022/02/15 02:12:27;;;;;;;4.30;1.17;;;;;;;-145.69;100.00;72017.31;5116364;28;20209;-79
2022/02/15 02:14:57;;;;;;;4.97;0.97;;;;;;;-145.69;100.00;72021.28;5116603;28;20197;-78
2022/02/15 02:17:24;;;;;;;2.53;0.80;;;;;;;-145.69;100.00;72031.25;5116026;28;20720;-78
2022/02/15 02:19:50;;;;;;;3.03;1.00;;;;;;;-145.69;100.00;72027.25;5116052;28;20243;-79
2022/02/15 02:22:18;;;;;;;4.07;0.90;;;;;;;-145.69;100.00;72035.22;5115894;28;20205;-79
2022/02/15 02:24:44;;;;;;;1.10;0.70;;;;;;;-145.69;100.00;72043.19;5116064;28;20254;-79
2022/02/15 02:27:15;;;;;;;3.37;0.80;;;;;;;-145.69;100.00;72043.19;5116023;28;20614;-79
2022/02/15 02:29:42;;;;;;;4.30;1.13;;;;;;;-145.69;100.00;72049.16;5115939;28;20197;-79
2022/02/15 02:32:08;;;;;;;3.80;0.87;;;;;;;-145.69;100.00;72057.13;5115944;28;20208;-78
2022/02/15 02:34:35;;;;;;;2.47;0.80;;;;;;;-145.69;100.00;72059.09;5115734;28;20197;-79
2022/02/15 02:37:01;;;;;;;1.30;0.80;;;;;;;-145.69;100.00;72071.03;5115896;28;20200;-79
2022/02/15 02:39:29;;;;;;;5.27;0.90;;;;;;;-145.69;100.00;72079.00;5115851;28;20205;-79
2022/02/15 02:41:55;;;;;;;0.97;0.70;;;;;;;-145.69;100.00;72075.03;5115535;28;20576;-79
2022/02/15 02:44:22;;;;;;;4.50;1.10;;;;;;;-145.69;100.00;72075.03;5115555;28;20616;-79
2022/02/15 02:46:49;;;;;;;3.03;0.80;;;;;;;-145.69;100.00;72065.06;5115516;28;20208;-79
2022/02/15 02:49:15;;;;;;;5.33;1.43;;;;;;;-145.69;100.00;72057.13;5115405;28;20465;-79
2022/02/15 02:51:42;;;;;;;6.33;0.83;;;;;;;-145.69;100.00;72057.13;5115674;28;20194;-79
2022/02/15 02:54:08;;;;;;;7.17;1.10;;;;;;;-145.69;100.00;72053.13;5115401;28;20201;-80
2022/02/15 02:56:36;;;;;;;7.50;0.93;;;;;;;-145.69;100.00;72047.16;5115165;28;20229;-79
2022/02/15 02:59:02;;;;;;;2.63;0.87;;;;;;;-145.69;100.00;72047.16;5115324;28;20204;-79
2022/02/15 03:01:29;;;;;;;5.53;0.87;;;;;;;-145.69;100.00;72059.09;5115340;28;20202;-79
2022/02/15 03:03:55;;;;;;;3.90;0.93;;;;;;;-145.69;100.00;72057.13;5115249;28;20223;-79
2022/02/15 03:06:22;;;;;;;2.67;0.90;;;;;;;-145.69;100.00;72067.06;5115490;28;20293;-79
2022/02/15 03:08:48;;;;;;;5.53;0.90;;;;;;;-145.69;100.00;72061.09;5115040;28;20703;-79
2022/02/15 03:11:15;;;;;;;2.27;0.90;;;;;;;-145.69;100.00;72067.06;5115130;28;20205;-80
2022/02/15 03:13:43;;;;;;;5.77;1.03;;;;;;;-145.69;100.00;72077.00;5114835;28;20204;-79
2022/02/15 03:16:09;;;;;;;1.70;0.80;;;;;;;-145.69;100.00;72073.03;5114825;28;20197;-79
2022/02/15 03:18:36;;;;;;;3.03;0.80;;;;;;;-145.69;100.00;72084.97;5114106;28;20201;-79
2022/02/15 03:21:02;;;;;;;3.50;0.83;;;;;;;-145.69;100.00;72086.97;5114943;28;20660;-79
2022/02/15 03:23:29;;;;;;;3.17;0.80;;;;;;;-145.69;100.00;72084.97;5114624;28;20205;-79
2022/02/15 03:25:55;;;;;;;2.80;0.83;;;;;;;-145.69;100.00;72086.97;5114899;28;20220;-79
2022/02/15 03:28:22;;;;;;;3.03;1.10;;;;;;;-145.69;100.00;72082.97;5114638;28;20278;-79
2022/02/15 03:30:49;;;;;;;1.23;0.80;;;;;;;-145.69;100.00;72082.97;5114425;28;20197;-79
2022/02/15 03:33:16;;;;;;;2.10;0.80;;;;;;;-145.69;100.00;72073.03;5114566;28;20664;-79
2022/02/15 03:35:42;;;;;;;3.53;0.90;;;;;;;-145.69;100.00;72081.00;5114432;28;20205;-79
2022/02/15 03:38:09;;;;;;;7.23;1.00;;;;;;;-145.69;100.00;72069.06;5114785;28;20208;-79
2022/02/15 03:43:19;;;;;;;7.07;1.37;;;;;;;-145.69;100.00;72069.06;5114459;28;20205;-79
2022/02/15 03:45:46;;;;;;;4.20;0.80;;;;;;;-145.69;100.00;72067.06;5114249;28;20671;-79
2022/02/15 03:48:14;;;;;;;3.10;1.00;;;;;;;-145.69;100.00;72055.13;5114399;28;20250;-79
2022/02/15 03:50:40;;;;;;;1.63;0.70;;;;;;;-145.69;100.00;72035.22;5114370;28;20217;-79
2022/02/15 03:53:07;;;;;;;2.80;0.90;;;;;;;-145.69;100.00;72027.25;5114138;28;20571;-79
2022/02/15 03:55:34;;;;;;;2.73;0.90;;;;;;;-145.69;100.00;72017.31;5114132;28;20259;-79
2022/02/15 03:58:00;;;;;;;4.03;0.73;;;;;;;-145.69;100.00;72005.38;5111848;28;20206;-79
2022/02/15 04:00:27;;;;;;;1.30;0.80;;;;;;;-145.69;100.00;71993.44;5113164;28;20205;-79
2022/02/15 04:02:55;;;;;;;3.30;1.20;;;;;;;-145.69;100.00;71991.44;5114310;28;20208;-78
2022/02/15 04:05:23;;;;;;;2.30;1.00;;;;;;;-145.69;100.00;71987.47;5114165;28;20644;-78
2022/02/15 04:07:49;;;;;;;2.87;1.03;;;;;;;-145.69;100.00;71987.47;5113952;28;20795;-78
2022/02/15 04:10:17;;;;;;;2.20;1.00;;;;;;;-145.69;100.00;71977.50;5113897;28;20197;-79
2022/02/15 04:12:43;;;;;;;3.53;1.00;;;;;;;-145.69;100.00;71979.50;5113939;28;20236;-79
2022/02/15 04:15:10;;;;;;;1.87;0.90;;;;;;;-145.69;100.00;71985.47;5114109;28;20201;-78
2022/02/15 04:17:37;;;;;;;1.20;0.73;;;;;;;-145.69;100.00;71991.44;5113929;28;20810;-78
2022/02/15 04:20:04;;;;;;;1.60;0.60;;;;;;;-145.69;100.00;72003.38;5113959;28;20656;-78
2022/02/15 04:22:32;;;;;;;3.93;0.83;;;;;;;-145.69;100.00;72001.38;5113831;28;20200;-78
2022/02/15 04:25:00;;;;;;;2.13;0.90;;;;;;;-145.69;100.00;72001.38;5113543;28;20201;-78
2022/02/15 04:27:27;;;;;;;4.80;1.47;;;;;;;-145.69;100.00;71999.41;5113826;28;20201;-78
2022/02/15 04:29:53;;;;;;;1.37;0.90;;;;;;;-145.69;100.00;72007.34;5112942;28;20201;-78
2022/02/15 04:32:20;;;;;;;5.20;1.47;;;;;;;-145.69;100.00;71989.44;5113656;28;20203;-78
2022/02/15 04:34:47;;;;;;;2.67;1.40;;;;;;;-145.69;100.00;71979.50;5114227;28;20201;-78
2022/02/15 04:37:13;;;;;;;5.17;1.50;;;;;;;-145.69;100.00;71975.50;5113662;28;20205;-78
2022/02/15 04:39:41;;;;;;;4.20;1.70;;;;;;;-145.69;100.00;71955.63;5113494;28;20201;-79
2022/02/15 04:42:08;;;;;;;3.13;1.47;;;;;;;-145.69;100.00;71965.56;5113751;28;20207;-78
2022/02/15 04:44:35;;;;;;;5.63;1.60;;;;;;;-145.69;100.00;71963.56;5113764;28;20201;-78
2022/02/15 04:47:01;;;;;;;2.90;1.33;;;;;;;-145.69;100.00;71977.50;5113622;28;20283;-78
2022/02/15 04:49:28;;;;;;;5.70;1.70;;;;;;;-145.69;100.00;71965.56;5113540;28;20233;-78
2022/02/15 04:51:55;;;;;;;5.30;1.60;;;;;;;-145.69;100.00;71967.56;5113389;28;20206;-78
2022/02/15 04:54:22;;;;;;;3.90;1.87;;;;;;;-145.69;100.00;71971.53;5113383;28;20246;-78
2022/02/15 04:56:50;;;;;;;4.83;2.00;;;;;;;-145.69;100.00;71981.50;5113219;28;20758;-78
2022/02/15 04:59:17;;;;;;;5.43;2.13;;;;;;;-145.69;100.00;71987.47;5113232;28;20660;-78
2022/02/15 05:01:43;;;;;;;4.93;2.27;;;;;;;-145.69;100.00;71989.44;5113367;28;20204;-78
2022/02/15 05:04:48;;;;;;;4.03;2.20;;;;;;;-145.69;100.00;71997.41;5113437;28;20220;-78
2022/02/15 05:06:58;;;;;;;5.67;2.50;;;;;;;-145.69;100.00;71997.41;5113221;28;20284;-78
2022/02/15 05:09:25;;;;;;;6.63;2.73;;;;;;;-145.69;100.00;72001.38;5113352;28;20229;-78
2022/02/15 05:11:52;;;;;;;5.57;2.70;;;;;;;-145.69;100.00;72019.31;5113296;28;20672;-78
2022/02/15 05:14:19;;;;;;;6.40;2.57;;;;;;;-145.69;100.00;72003.38;5113240;28;20713;-79
2022/02/15 05:16:46;;;;;;;5.33;2.70;;;;;;;-145.69;100.00;72011.34;5113092;28;20675;-79
2022/02/15 05:19:13;;;;;;;6.00;3.13;;;;;;;-145.69;100.00;72021.28;5113138;28;20269;-79
2022/02/15 05:21:40;;;;;;;6.30;2.50;;;;;;;-145.69;100.00;72023.28;5113278;28;20288;-78
2022/02/15 05:24:07;;;;;;;5.90;2.80;;;;;;;-145.69;100.00;72027.25;5113307;28;20197;-78
2022/02/15 05:26:34;;;;;;;7.40;3.03;;;;;;;-145.69;100.00;72031.25;5113227;28;20205;-78
2022/02/15 05:29:02;;;;;;;5.37;2.53;;;;;;;-145.69;100.00;72039.19;5112954;28;20233;-78
2022/02/15 05:31:28;;;;;;;5.13;2.37;;;;;;;-145.69;100.00;72041.19;5113067;28;20197;-79
2022/02/15 05:33:55;;;;;;;6.00;3.03;;;;;;;-145.69;100.00;72035.22;5112756;28;20216;-79
2022/02/15 05:36:21;;;;;;;6.03;3.00;;;;;;;-145.69;100.00;72049.16;5112924;28;20205;-79
2022/02/15 05:38:50;;;;;;;4.53;2.43;;;;;;;-145.69;100.00;72043.19;5113622;28;20207;-78
2022/02/15 05:41:17;;;;;;;6.57;2.77;;;;;;;-145.69;100.00;72047.16;5114973;28;20209;-78
2022/02/15 05:43:43;;;;;;;6.60;3.07;;;;;;;-145.69;100.00;72057.13;5116798;28;20592;-79
2022/02/15 05:46:11;;;;;;;8.50;2.80;;;;;;;-145.69;100.00;72061.09;5116656;28;20202;-78
2022/02/15 05:48:37;;;;;;;8.10;3.30;;;;;;;-145.69;100.00;72059.09;5116453;28;20236;-78
2022/02/15 05:51:04;;;;;;;9.27;3.83;;;;;;;-145.69;100.00;72061.09;5112713;28;20205;-78
2022/02/15 05:53:31;;;;;;;8.63;3.30;;;;;;;-145.69;100.00;72063.09;5116550;28;20197;-78
2022/02/15 05:56:01;;;;;;;8.80;3.97;;;;;;;-145.69;100.00;72059.09;5116436;28;20252;-78
2022/02/15 05:58:29;;;;;;;9.30;4.40;;;;;;;-145.69;100.00;72055.13;5116437;28;20204;-78
2022/02/15 06:00:56;;;;;;;11.13;4.10;;;;;;;-145.69;100.00;72051.16;5116438;28;20556;-79
2022/02/15 06:06:08;;;;;;;10.40;4.00;;;;;;;-145.69;100.00;72067.06;5116582;28;20204;-79
2022/02/15 06:08:34;;;;;;;8.40;3.93;;;;;;;-145.69;100.00;72063.09;5116143;28;20229;-79
2022/02/15 06:11:01;;;;;;;7.93;3.00;;;;;;;-145.69;100.00;72059.09;5116370;28;20250;-79
2022/02/15 06:13:27;;;;;;;5.80;3.63;;;;;;;-145.69;100.00;72073.03;5116079;28;20652;-79
2022/02/15 06:15:54;;;;;;;6.03;3.40;;;;;;;-145.69;100.00;72071.03;5116349;28;20198;-79
2022/02/15 06:18:20;;;;;;;5.53;2.83;;;;;;;-145.69;100.00;72086.97;5116248;28;20205;-79
2022/02/15 06:20:48;;;;;;;6.07;3.20;;;;;;;-145.69;100.00;72092.94;5116043;28;20197;-79
2022/02/15 06:23:15;;;;;;;6.03;3.27;;;;;;;-145.69;100.00;72104.88;5116105;28;20215;-79
2022/02/15 06:25:42;;;;;;;6.90;3.97;;;;;;;-145.69;100.00;72116.81;5115896;28;20212;-79
2022/02/15 06:28:08;;;;;;;9.77;3.90;;;;;;;-145.69;100.00;72126.78;5115693;28;20201;-79
2022/02/15 06:30:35;;;;;;;7.57;4.40;;;;;;;-145.69;100.00;72126.78;5115598;28;20444;-79
2022/02/15 06:33:01;;;;;;;7.77;4.67;;;;;;;-145.69;100.00;72130.75;5115711;28;20652;-79
2022/02/15 06:35:28;;;;;;;7.47;4.10;;;;;;;-145.69;100.00;72130.75;5115721;28;20204;-79
2022/02/15 06:37:56;;;;;;;7.23;3.90;;;;;;;-145.69;100.00;72140.69;5115767;28;20198;-79
2022/02/15 06:40:22;;;;;;;6.67;4.20;;;;;;;-145.69;100.00;72146.69;5115669;28;20201;-79
2022/02/15 06:42:49;;;;;;;7.63;4.37;;;;;;;-145.69;100.00;72144.69;5115495;28;20208;-79
2022/02/15 06:45:17;;;;;;;10.00;4.30;;;;;;;-145.69;100.00;72136.72;5114438;28;20727;-79
2022/02/15 06:47:43;;;;;;;7.13;3.60;;;;;;;-145.69;100.00;72142.69;5115624;28;20209;-79
2022/02/15 06:50:10;;;;;;;8.70;4.13;;;;;;;-145.69;100.00;72134.72;5115138;28;20229;-79
2022/02/15 06:52:37;;;;;;;15.53;4.67;;;;;;;-145.69;100.00;72132.75;5114427;28;20204;-79
2022/02/15 06:55:06;;;;;;;8.00;3.30;;;;;;;-145.69;100.00;72128.75;5115022;28;20302;-78
2022/02/15 06:57:33;;;;;;;6.00;2.83;;;;;;;-145.69;100.00;72124.78;5115496;28;20219;-78
2022/02/15 06:59:59;;;;;;;5.13;2.30;;;;;;;-145.69;100.00;72128.75;5115402;28;20553;-79
2022/02/15 07:02:25;;;;;;;3.50;1.83;;;;;;;-145.69;100.00;72126.78;5115336;28;20606;-79
2022/02/15 07:04:53;;;;;;;8.13;2.37;;;;;;;-145.69;100.00;72122.78;5115194;28;20205;-79
2022/02/15 07:07:19;;;;;;;5.77;2.43;;;;;;;-145.69;100.00;72132.75;5115245;28;20256;-79
2022/02/15 07:09:45;;;;;;;3.77;2.10;;;;;;;-145.69;100.00;72140.69;5114855;28;20584;-79
2022/02/15 07:12:13;;;;;;;3.87;2.30;;;;;;;-145.69;100.00;72134.72;5115193;28;20206;-79
2022/02/15 07:14:40;;;;;;;4.77;2.33;;;;;;;-145.69;100.00;72130.75;5115028;28;20197;-79
2022/02/15 07:17:07;;;;;;;3.37;2.07;;;;;;;-145.69;100.00;72138.72;5115135;28;20246;-79
2022/02/15 07:19:34;;;;;;;3.97;2.10;;;;;;;-145.69;100.00;72130.75;5114947;28;20208;-79
2022/02/15 07:22:01;;;;;;;5.23;2.33;;;;;;;-145.69;100.00;72128.75;5114780;28;20197;-78
2022/02/15 07:24:27;;;;;;;5.47;2.73;;;;;;;-145.69;100.00;72126.78;5114739;28;20205;-79
2022/02/15 07:26:54;;;;;;;21.87;7.23;;;;;;;-145.69;100.00;72122.78;5114651;28;20258;-79
2022/02/15 07:29:22;;;;;;;5.23;2.40;;;;;;;-145.69;100.00;72124.78;5114736;28;20225;-79
2022/02/15 07:31:50;;;;;;;4.37;2.00;;;;;;;-145.69;100.00;72114.81;5114640;28;20655;-79
2022/02/15 07:34:16;;;;;;;2.67;1.80;;;;;;;-145.69;100.00;72120.81;5114625;28;20204;-79
2022/02/15 07:36:44;;;;;;;6.67;2.57;;;;;;;-145.69;100.00;72118.81;5114481;28;20622;-79
2022/02/15 07:39:10;;;;;;;7.70;2.20;;;;;;;-145.69;100.00;72122.78;5114718;28;20236;-79
2022/02/15 07:41:36;;;;;;;3.50;2.03;;;;;;;-145.69;100.00;72132.75;5111180;28;20220;-79
2022/02/15 07:44:04;;;;;;;3.13;2.10;;;;;;;-145.69;100.00;72128.75;5094272;28;20202;-79
2022/02/15 07:46:32;;;;;;;2.60;1.80;;;;;;;-145.69;100.00;72122.78;5093965;28;20202;-79
2022/02/15 07:48:58;;;;;;;3.77;2.10;;;;;;;-145.69;100.00;72114.81;5093825;28;20300;-78
2022/02/15 07:51:24;;;;;;;4.57;1.80;;;;;;;-145.69;100.00;72118.81;5106653;28;20201;-79
2022/02/15 07:53:51;;;;;;;3.50;2.07;;;;;;;-145.69;100.00;72104.88;5114386;28;20200;-79
2022/02/15 07:56:17;;;;;;;3.33;2.10;;;;;;;-145.69;100.00;72096.91;5114195;28;20228;-79
2022/02/15 07:58:44;;;;;;;4.80;2.50;;;;;;;-145.69;100.00;72096.91;5113867;28;20197;-79
2022/02/15 08:01:10;;;;;;;4.10;1.93;;;;;;;-145.69;100.00;72075.03;5114090;28;20741;-79
2022/02/15 08:03:39;;;;;;;3.27;1.70;;;;;;;-145.69;100.00;72045.16;5113817;28;20209;-79
2022/02/15 08:06:05;;;;;;;2.30;1.43;;;;;;;-145.69;100.00;72039.19;5114009;28;20232;-79
2022/02/15 08:08:32;;;;;;;3.10;1.50;;;;;;;-145.69;100.00;72035.22;5114014;28;20208;-79
2022/02/15 08:10:58;;;;;;;2.77;1.50;;;;;;;-145.69;100.00;72033.22;5114173;28;20287;-79
2022/02/15 08:13:33;;;;;;;2.60;1.50;;;;;;;-145.69;100.00;71999.41;5113710;28;20247;-79
2022/02/15 08:16:00;;;;;;;2.40;1.53;;;;;;;-145.69;100.00;71963.56;5114108;28;20250;-79
2022/02/15 08:18:26;;;;;;;4.40;1.47;;;;;;;-145.69;100.00;71959.59;5113816;28;20263;-79
2022/02/15 08:20:54;;;;;;;2.97;1.00;;;;;;;-145.69;100.00;71963.56;5113895;28;20292;-79
2022/02/15 08:23:22;;;;;;;3.03;1.67;;;;;;;-145.69;100.00;71985.47;5113740;28;20193;-77
2022/02/15 08:25:50;;;;;;;3.20;1.40;;;;;;;-145.69;100.00;71993.44;5113710;28;20228;-78
2022/02/15 08:28:17;;;;;;;3.53;1.23;;;;;;;-145.69;100.00;71989.44;5113705;28;20236;-78
2022/02/15 08:30:43;;;;;;;2.07;1.27;;;;;;;-145.69;100.00;71993.44;5113454;28;20221;-78
2022/02/15 08:33:10;;;;;;;2.63;1.40;;;;;;;-145.69;100.00;71997.41;5113571;28;20542;-78
2022/02/15 08:35:36;;;;;;;3.27;1.40;;;;;;;-145.69;100.00;71999.41;5113707;28;20198;-78
2022/02/15 08:38:04;;;;;;;2.20;1.40;;;;;;;-145.69;100.00;72001.38;5113413;28;20197;-78
2022/02/15 08:40:31;;;;;;;2.93;1.30;;;;;;;-145.69;100.00;72023.28;5113482;28;20194;-77
2022/02/15 08:42:58;;;;;;;2.67;1.20;;;;;;;-145.69;100.00;72039.19;5113707;28;20208;-77
2022/02/15 08:45:24;;;;;;;7.10;1.40;;;;;;;-145.69;100.00;72049.16;5113186;28;20534;-77
2022/02/15 08:47:51;;;;;;;2.87;1.33;;;;;;;-145.69;100.00;72055.13;5113648;28;20224;-77
2022/02/15 08:50:17;;;;;;;1.83;1.40;;;;;;;-145.69;100.00;72047.16;5113303;28;20309;-77
2022/02/15 08:52:45;;;;;;;4.17;1.70;;;;;;;-145.69;100.00;72047.16;5113288;28;20198;-78
2022/02/15 08:55:12;;;;;;;3.53;1.37;;;;;;;-145.69;100.00;72053.13;5113221;28;20259;-77
2022/02/15 08:57:40;;;;;;;2.87;1.40;;;;;;;-145.69;100.00;72069.06;5113143;28;20530;-77
2022/02/15 09:00:09;;;;;;;2.40;1.50;;;;;;;-145.69;100.00;72082.97;5113125;28;20201;-77
2022/02/15 09:02:36;;;;;;;3.20;1.80;;;;;;;-145.69;100.00;72092.94;5113407;28;20193;-77
2022/02/15 09:05:03;;;;;;;6.17;3.10;;;;;;;-145.69;100.00;72098.91;5113343;28;20291;-76
2022/02/15 09:07:30;;;;;;;4.73;2.57;;;;;;;-145.69;100.00;72134.72;5113578;28;20205;-77
2022/02/15 09:09:56;;;;;;;3.93;2.10;;;;;;;-145.69;100.00;72138.72;5113263;28;20225;-80
2022/02/15 09:12:24;;;;;;;3.93;2.03;;;;;;;-145.69;100.00;72162.59;5113136;28;20201;-77
2022/02/15 09:14:50;;;;;;;4.80;2.50;;;;;;;-145.69;100.00;72184.50;5113250;28;20212;-78
2022/02/15 09:17:17;;;;;;;3.93;2.30;;;;;;;-145.69;100.00;72186.47;5116969;28;20201;-78
2022/02/15 09:19:43;;;;;;;4.10;2.70;;;;;;;-145.69;100.00;72222.31;5117294;28;20209;-79
2022/02/15 09:22:09;;;;;;;6.43;3.67;;;;;;;-145.69;100.00;72240.22;5116997;28;20587;-77
2022/02/15 09:24:36;;;;;;;8.03;3.53;;;;;;;-145.69;100.00;72256.13;5117067;28;20555;-77
2022/02/15 09:27:03;;;;;;;6.00;3.57;;;;;;;-145.69;100.00;72274.06;5115947;28;20197;-78
2022/02/15 09:29:30;;;;;;;6.73;3.90;;;;;;;-145.69;100.00;72289.97;5117110;28;20233;-77
2022/02/15 09:31:57;;;;;;;6.10;3.53;;;;;;;-145.69;100.00;72297.94;5116979;28;20198;-77
2022/02/15 09:34:23;;;;;;;6.53;3.57;;;;;;;-145.69;100.00;72301.91;5117110;28;20207;-77
2022/02/15 09:36:51;;;;;;;6.63;3.57;;;;;;;-145.69;100.00;72293.94;5111097;28;20248;-77
2022/02/15 09:39:17;;;;;;;5.00;2.70;;;;;;;-145.69;100.00;72311.88;5096272;28;20647;-77
2022/02/15 09:41:44;;;;;;;7.03;2.63;;;;;;;-145.69;100.00;72325.81;5095288;28;20247;-77
2022/02/15 09:44:11;;;;;;;4.83;2.70;;;;;;;-145.69;100.00;72325.81;5094677;28;20711;-78
2022/02/15 09:46:42;;;;;;;5.93;3.40;;;;;;;-145.69;100.00;72325.81;5094447;28;20209;-78
2022/02/15 09:49:48;;;;;;;5.00;3.00;;;;;;;-145.69;100.00;72321.81;5094302;28;20198;-78
2022/02/15 09:51:55;;;;;;;4.67;2.67;;;;;;;-145.69;100.00;72321.81;5111178;28;20247;-78
2022/02/15 09:54:22;;;;;;;3.13;2.13;;;;;;;-145.69;100.00;72321.81;5114340;28;20204;-78
2022/02/15 09:56:48;;;;;;;3.57;2.40;;;;;;;-145.69;100.00;72327.78;5115266;28;20225;-78
2022/02/15 09:59:15;;;;;;;4.10;2.37;;;;;;;-145.69;100.00;72329.78;5116535;28;20200;-78
2022/02/15 10:01:44;;;;;;;3.27;1.90;;;;;;;-145.69;100.00;72339.72;5116237;28;20197;-78
2022/02/15 10:04:11;;;;;;;9.17;3.90;;;;;;;-145.69;100.00;72317.84;5116880;28;20202;-78
2022/02/15 10:06:40;;;;;;;3.30;2.03;;;;;;;-145.69;100.00;72297.94;5116200;28;20226;-78
2022/02/15 10:09:08;;;;;;;2.87;2.00;;;;;;;-145.69;100.00;72270.06;5116526;28;20288;-78
2022/02/15 10:11:36;;;;;;;2.03;1.47;;;;;;;-145.69;100.00;72286.00;5116312;28;20236;-78
2022/02/15 10:14:03;;;;;;;2.00;1.47;;;;;;;-145.69;100.00;72278.03;5116306;28;20193;-78
2022/02/15 10:16:29;;;;;;;2.63;1.50;;;;;;;-145.69;100.00;72230.25;5116306;28;20197;-78
2022/02/15 10:18:58;;;;;;;2.43;1.20;;;;;;;-145.69;100.00;72242.22;5116157;28;20198;-78
2022/02/15 10:21:28;;;;;;;4.73;1.23;;;;;;;-145.69;100.00;72220.31;5115854;28;20568;-78
2022/02/15 10:23:56;;;;;;;2.20;1.10;;;;;;;-145.69;100.00;72198.41;5116232;28;20202;-78
2022/02/15 10:26:23;;;;;;;3.33;1.00;;;;;;;-145.69;100.00;72224.28;5115994;28;20202;-78
2022/02/15 10:28:49;;;;;;;1.23;0.93;;;;;;;-145.69;100.00;72230.25;5116032;28;20197;-79
2022/02/15 10:31:16;;;;;;;1.27;1.17;;;;;;;-145.69;100.00;72218.31;5115541;28;20312;-78
2022/02/15 10:33:45;;;;;;;1.13;0.90;;;;;;;-145.69;100.00;72200.41;5115895;28;20201;-78
2022/02/15 10:36:15;;;;;;;1.53;1.03;;;;;;;-145.69;100.00;72218.31;5115948;28;20208;-78
2022/02/15 10:38:44;;;;;;;2.20;1.30;;;;;;;-145.69;100.00;72204.38;5115901;28;20203;-78
2022/02/15 10:41:12;;;;;;;1.37;1.10;;;;;;;-145.69;100.00;72174.53;5115143;28;20254;-78
2022/02/15 10:43:44;;;;;;;4.60;1.40;;;;;;;-145.69;100.00;72180.50;5115604;28;20197;-79
2022/02/15 10:46:12;;;;;;;1.47;1.00;;;;;;;-145.69;100.00;72168.56;5101342;28;20186;-79
2022/02/15 10:48:38;;;;;;;1.13;0.90;;;;;;;-145.69;100.00;72172.53;5102234;28;20205;-78
2022/02/15 10:51:05;;;;;;;1.33;1.10;;;;;;;-145.69;100.00;72184.50;5094695;28;20229;-80
2022/02/15 10:53:33;;;;;;;1.20;1.10;;;;;;;-145.69;100.00;72180.50;5094579;28;20205;-79
2022/02/15 10:56:00;;;;;;;2.93;1.13;;;;;;;-145.69;100.00;72156.63;5094542;28;20226;-78
2022/02/15 10:58:27;;;;;;;4.00;1.37;;;;;;;-145.69;100.00;72168.56;5095048;28;20615;-78
2022/02/15 11:00:57;;;;;;;3.83;1.60;;;;;;;-145.69;100.00;72154.63;5113334;28;20238;-80
2022/02/15 11:03:25;;;;;;;6.13;1.53;;;;;;;-145.69;100.00;72158.63;5114843;28;20586;-79
2022/02/15 11:05:52;;;;;;;2.10;1.27;;;;;;;-145.69;100.00;72118.81;5114700;28;20205;-78
2022/02/15 11:08:20;;;;;;;3.10;1.20;;;;;;;-145.69;100.00;72118.81;5115444;28;20193;-78
2022/02/15 11:10:52;;;;;;;3.30;1.40;;;;;;;-145.69;100.00;72122.78;5114882;28;20236;-78
2022/02/15 11:13:23;;;;;;;4.17;1.50;;;;;;;-145.69;100.00;72128.75;5113198;28;20202;-78
2022/02/15 11:15:51;;;;;;;3.43;1.53;;;;;;;-145.69;100.00;72088.97;5103657;28;20251;-78
2022/02/15 11:18:29;;;;;;;4.17;1.50;;;;;;;-145.69;100.00;72110.84;5114845;28;20203;-79